createdAt,value
2023-09-10T00:01:27.336Z,10.93
2023-09-10T00:03:55.070Z,9.95
2023-09-10T00:06:22.869Z,10.73
2023-09-10T00:08:50.472Z,11.17
2023-09-10T00:11:19.108Z,10.00
2023-09-10T00:13:46.810Z,10.48
2023-09-10T00:16:14.653Z,9.95
2023-09-10T00:18:42.292Z,9.95
2023-09-10T00:21:14.647Z,9.73
2023-09-10T00:23:42.350Z,10.30
2023-09-10T00:26:13.851Z,10.50
2023-09-10T00:28:46.141Z,9.88
2023-09-10T00:31:13.875Z,9.70
2023-09-10T00:33:44.260Z,10.40
2023-09-10T00:36:14.644Z,10.10
2023-09-10T00:38:42.437Z,9.97
2023-09-10T00:41:10.247Z,9.45
2023-09-10T00:43:38.101Z,10.40
2023-09-10T00:46:07.079Z,10.23
2023-09-10T00:48:35.125Z,10.48
2023-09-10T00:51:03.095Z,10.33
2023-09-10T00:53:31.312Z,10.20
2023-09-10T00:55:59.244Z,10.07
2023-09-10T00:58:27.464Z,9.93
2023-09-10T01:00:55.465Z,9.70
2023-09-10T01:03:23.933Z,9.70
2023-09-10T01:05:51.758Z,10.33
2023-09-10T01:08:21.664Z,9.63
2023-09-10T01:11:16.259Z,9.68
2023-09-10T01:13:56.579Z,9.38
2023-09-10T01:17:06.947Z,9.88
2023-09-10T01:19:47.238Z,9.50
2023-09-10T01:22:30.559Z,9.40
2023-09-10T01:24:59.209Z,9.60
2023-09-10T01:27:26.942Z,9.45
2023-09-10T01:29:57.205Z,8.98
2023-09-10T01:32:36.209Z,9.18
2023-09-10T01:35:42.853Z,9.03
2023-09-10T01:38:38.009Z,9.35
2023-09-10T01:41:19.216Z,9.35
2023-09-10T01:43:51.141Z,9.15
2023-09-10T01:46:20.175Z,8.88
2023-09-10T01:48:48.421Z,8.97
2023-09-10T01:51:18.212Z,8.57
2023-09-10T01:53:47.708Z,8.65
2023-09-10T01:56:17.872Z,8.27
2023-09-10T01:58:45.618Z,8.35
2023-09-10T02:01:13.376Z,9.18
2023-09-10T02:03:41.059Z,8.90
2023-09-10T02:06:11.003Z,9.17
2023-09-10T02:08:39.182Z,9.15
2023-09-10T02:11:07.310Z,8.85
2023-09-10T02:13:35.179Z,8.55
2023-09-10T02:16:09.152Z,8.93
2023-09-10T02:18:39.868Z,7.87
2023-09-10T02:21:11.340Z,8.60
2023-09-10T02:23:40.550Z,8.20
2023-09-10T02:26:08.295Z,8.77
2023-09-10T02:28:36.121Z,8.40
2023-09-10T02:31:08.273Z,8.27
2023-09-10T02:33:36.730Z,8.00
2023-09-10T02:36:04.822Z,7.55
2023-09-10T02:38:36.941Z,7.72
2023-09-10T02:41:04.962Z,7.90
2023-09-10T02:43:32.614Z,8.55
2023-09-10T02:46:00.275Z,7.90
2023-09-10T02:48:28.067Z,7.97
2023-09-10T02:50:56.022Z,8.13
2023-09-10T02:53:23.581Z,7.93
2023-09-10T02:56:00.306Z,7.38
2023-09-10T02:58:28.031Z,8.38
2023-09-10T03:00:55.719Z,7.83
2023-09-10T03:03:23.892Z,7.80
2023-09-10T03:05:51.560Z,8.48
2023-09-10T03:08:19.133Z,7.65
2023-09-10T03:10:46.777Z,8.02
2023-09-10T03:13:17.014Z,8.60
2023-09-10T03:15:49.547Z,8.40
2023-09-10T03:18:17.148Z,8.23
2023-09-10T03:20:44.942Z,8.32
2023-09-10T03:23:12.992Z,7.70
2023-09-10T03:25:44.625Z,8.73
2023-09-10T03:28:13.668Z,8.33
2023-09-10T03:30:42.790Z,7.95
2023-09-10T03:33:10.863Z,7.78
2023-09-10T03:35:41.330Z,8.27
2023-09-10T03:38:09.158Z,8.32
2023-09-10T03:40:37.013Z,7.73
2023-09-10T03:43:05.222Z,8.17
2023-09-10T03:45:32.926Z,8.65
2023-09-10T03:48:00.668Z,7.90
2023-09-10T03:50:30.892Z,8.48
2023-09-10T03:53:00.842Z,8.13
2023-09-10T03:55:28.578Z,7.47
2023-09-10T03:57:58.639Z,7.70
2023-09-10T04:00:36.238Z,8.00
2023-09-10T04:03:07.163Z,7.32
2023-09-10T04:05:40.265Z,7.55
2023-09-10T04:08:10.834Z,7.73
2023-09-10T04:10:40.382Z,7.70
2023-09-10T04:13:13.228Z,7.57
2023-09-10T04:15:43.976Z,8.00
2023-09-10T04:18:20.832Z,8.05
2023-09-10T04:21:08.998Z,8.20
2023-09-10T04:23:42.003Z,8.63
2023-09-10T04:26:19.169Z,8.32
2023-09-10T04:28:51.468Z,8.57
2023-09-10T04:31:19.671Z,8.80
2023-09-10T04:33:50.260Z,7.90
2023-09-10T04:36:18.311Z,8.30
2023-09-10T04:38:47.113Z,7.93
2023-09-10T04:41:15.122Z,8.50
2023-09-10T04:43:43.646Z,8.82
2023-09-10T04:46:11.555Z,8.00
2023-09-10T04:48:39.662Z,9.00
2023-09-10T04:51:10.787Z,9.70
2023-09-10T04:53:38.616Z,9.13
2023-09-10T04:56:07.124Z,9.30
2023-09-10T04:58:36.710Z,9.30
2023-09-10T05:01:04.725Z,9.10
2023-09-10T05:03:32.622Z,9.57
2023-09-10T05:06:03.691Z,9.55
2023-09-10T05:08:31.390Z,9.05
2023-09-10T05:10:59.166Z,10.15
2023-09-10T05:13:26.944Z,9.32
2023-09-10T05:15:56.412Z,9.63
2023-09-10T05:18:26.398Z,9.98
2023-09-10T05:20:55.442Z,9.52
2023-09-10T05:23:30.688Z,9.57
2023-09-10T05:26:04.830Z,10.35
2023-09-10T05:28:33.158Z,9.40
2023-09-10T05:31:09.195Z,9.35
2023-09-10T05:33:39.595Z,9.15
2023-09-10T05:36:07.544Z,8.98
2023-09-10T05:38:38.022Z,8.27
2023-09-10T05:41:09.852Z,8.70
2023-09-10T05:43:37.650Z,8.88
2023-09-10T05:46:07.287Z,8.63
2023-09-10T05:48:35.895Z,9.55
2023-09-10T05:51:03.951Z,9.40
2023-09-10T05:53:31.914Z,9.17
2023-09-10T05:55:59.782Z,8.47
2023-09-10T05:58:28.273Z,8.80
2023-09-10T06:00:55.980Z,8.63
2023-09-10T06:03:26.979Z,9.00
2023-09-10T06:05:54.862Z,8.93
2023-09-10T06:08:27.983Z,9.17
2023-09-10T06:10:59.384Z,9.95
2023-09-10T06:13:31.279Z,9.38
2023-09-10T06:16:01.874Z,8.77
2023-09-10T06:18:30.588Z,8.82
2023-09-10T06:20:58.686Z,10.03
2023-09-10T06:23:26.964Z,9.73
2023-09-10T06:25:54.898Z,10.23
2023-09-10T06:28:25.480Z,10.00
2023-09-10T06:30:53.690Z,9.90
2023-09-10T06:33:24.696Z,9.52
2023-09-10T06:35:52.731Z,9.83
2023-09-10T06:38:26.178Z,9.45
2023-09-10T06:40:57.482Z,9.48
2023-09-10T06:43:25.698Z,9.40
2023-09-10T06:46:32.364Z,9.60
2023-09-10T06:49:00.123Z,9.03
2023-09-10T06:51:29.378Z,9.63
2023-09-10T06:54:12.391Z,9.13
2023-09-10T06:56:42.008Z,9.07
2023-09-10T07:02:23.536Z,9.93
2023-09-10T07:05:00.446Z,8.87
2023-09-10T07:07:29.064Z,7.77
2023-09-10T07:10:19.864Z,8.50
2023-09-10T07:12:57.879Z,8.48
2023-09-10T07:15:32.566Z,8.07
2023-09-10T07:18:12.336Z,8.82
2023-09-10T07:24:22.486Z,8.73
2023-09-10T07:27:11.166Z,8.55
2023-09-10T07:29:51.522Z,9.25
2023-09-10T07:32:33.801Z,9.77
2023-09-10T07:35:20.457Z,9.60
2023-09-10T07:38:11.946Z,9.33
2023-09-10T07:40:52.488Z,9.13
2023-09-10T07:43:38.960Z,9.95
2023-09-10T07:46:25.334Z,9.05
2023-09-10T07:49:36.815Z,9.95
2023-09-10T07:52:32.582Z,9.85
2023-09-10T08:01:27.242Z,9.10
2023-09-10T08:04:26.265Z,9.25
2023-09-10T08:07:45.221Z,9.35
2023-09-10T08:10:21.887Z,10.02
2023-09-10T08:13:20.683Z,9.68
2023-09-10T08:16:46.450Z,8.95
2023-09-10T08:19:28.223Z,9.37
2023-09-10T08:32:59.127Z,9.25
2023-09-10T08:49:32.539Z,9.73
2023-09-10T09:01:14.829Z,8.82
2023-09-10T09:07:44.675Z,9.20
2023-09-10T18:40:48.496Z,6.32
2023-09-10T18:44:43.544Z,7.37
2023-09-10T18:53:32.194Z,8.50
